Observations for Trim Patrick St
| Time | AQI | Temp °C | Hum % | Pres Pa | CO μg/m³ | H₂S μg/m³ | NO μg/m³ | NO₂ μg/m³ | O₃ μg/m³ | SO₂ μg/m³ | PM1 μg/m³ | PM2.5 μg/m³ | PM10 μg/m³ |
|---|---|---|---|---|---|---|---|---|---|---|---|---|---|
| Sunday 2 August 2026 | |||||||||||||
| 09:07 | 2 | 20.4 | 62 | 79,398 | 0.1 | 0 | 2.1 | 13.18 | 39.39 | 2.89 | 4.57 | 10.81 | 11.89 |
| 09:06 | 2 | 20.4 | 62 | 79,442 | 0.12 | 0 | 1.91 | 14.16 | 39.27 | 3.01 | 5.43 | 11.54 | 12.7 |
| 09:05 | 2 | 20.3 | 62 | 79,558 | 0.11 | 0 | 1.92 | 11.54 | 40.72 | 1.81 | 5.43 | 10.84 | 11.92 |
| 09:04 | 2 | 20.4 | 62 | 79,658 | 0.1 | 0 | 2.1 | 12.06 | 39.74 | 2.26 | 3.71 | 7.86 | 8.65 |
| 09:03 | 2 | 20.3 | 62 | 79,764 | 0.15 | 0 | 2.33 | 13.88 | 41.09 | 1.64 | 4.57 | 10.85 | 11.94 |
| 09:02 | 2 | 20.3 | 62 | 79,896 | 0.28 | 0 | 2.4 | 13.13 | 40.52 | 1.83 | 5.43 | 11.56 | 12.72 |
| 09:01 | 2 | 20.3 | 62 | 80,158 | 0.18 | 0 | 2.2 | 12.59 | 39.79 | 2.28 | 4.57 | 10.08 | 11.08 |
| 09:00 | 2 | 20.3 | 62 | 80,451 | 0.19 | 0 | 2.14 | 11.83 | 40.15 | 2.22 | 5.43 | 10.82 | 11.9 |
| 08:59 | 2 | 20.3 | 62 | 80,829 | 0.15 | 0 | 2.1 | 11.96 | 40 | 1.46 | 4.57 | 10.82 | 11.9 |
| 08:58 | 2 | 20.3 | 62 | 81,275 | 0.14 | 0 | 1.95 | 11.83 | 40.82 | 1.59 | 4.57 | 10.1 | 11.11 |
| 08:56 | 2 | 20.2 | 62 | 82,329 | 0.15 | 0 | 1.78 | 11.59 | 40.44 | 1.03 | 4.57 | 10.08 | 11.08 |
| 08:55 | 2 | 20.2 | 63 | 83,117 | 0.15 | 0 | 1.53 | 12.03 | 39.18 | 1.62 | 4.57 | 10.03 | 11.03 |
| 08:54 | 2 | 20.1 | 62 | 83,853 | 0.17 | 0 | 1.39 | 13.86 | 40.25 | 1.34 | 5.43 | 10.05 | 11.05 |
| 08:53 | 2 | 20.1 | 63 | 84,462 | 0.18 | 0 | 1.6 | 12.68 | 40 | 1.56 | 4.57 | 11.45 | 12.59 |
| 08:52 | 2 | 20.1 | 63 | 84,878 | 0.17 | 0 | 1.6 | 13.39 | 39.5 | 1.64 | 6.29 | 12.21 | 13.43 |
| 08:51 | 2 | 20.1 | 63 | 85,461 | 0.16 | 0 | 1.59 | 19.58 | 40.9 | 1.37 | 5.43 | 10.74 | 11.82 |
| 08:50 | 2 | 20 | 63 | 85,841 | 0.17 | 0 | 2.2 | 14.82 | 39.31 | 1.55 | 5.43 | 11.46 | 12.6 |
| 08:49 | 2 | 20 | 63 | 86,308 | 0.15 | 0 | 1.8 | 13.44 | 39.82 | 1.38 | 4.57 | 10.02 | 11.03 |
| 08:48 | 2 | 19.9 | 63 | 86,907 | 0.17 | 0 | 1.47 | 14.68 | 39.58 | 1.11 | 4.57 | 11.48 | 12.63 |
| 08:47 | 2 | 19.9 | 63 | 87,623 | 0.17 | 0 | 1.61 | 13.47 | 38.87 | 1.25 | 5.43 | 9.99 | 10.99 |